createdAt,value
2018-03-21T00:02:08.889Z,0.95
2018-03-21T00:04:36.594Z,1.04
2018-03-21T00:07:04.263Z,0.88
2018-03-21T00:09:32.181Z,1.06
2018-03-21T00:11:59.848Z,1.18
2018-03-21T00:14:27.503Z,0.97
2018-03-21T00:16:55.200Z,0.98
2018-03-21T00:19:22.864Z,0.78
2018-03-21T00:21:50.542Z,0.97
2018-03-21T00:24:18.215Z,0.92
2018-03-21T00:26:45.912Z,0.81
2018-03-21T00:29:13.579Z,1.02
2018-03-21T00:31:41.231Z,0.72
2018-03-21T00:34:08.908Z,0.90
2018-03-21T00:36:36.565Z,0.85
2018-03-21T00:39:04.253Z,0.87
2018-03-21T00:41:31.920Z,0.76
2018-03-21T00:43:59.636Z,0.89
2018-03-21T00:46:27.302Z,0.77
2018-03-21T00:48:54.976Z,0.69
2018-03-21T00:51:22.651Z,0.69
2018-03-21T00:53:50.311Z,0.66
2018-03-21T00:56:17.998Z,0.62
2018-03-21T00:58:45.660Z,0.54
2018-03-21T01:01:13.316Z,0.48
2018-03-21T01:03:41.001Z,0.42
2018-03-21T01:06:08.656Z,0.41
2018-03-21T01:08:36.479Z,0.36
2018-03-21T01:11:04.140Z,0.43
2018-03-21T01:13:31.816Z,0.47
2018-03-21T01:15:59.490Z,0.52
2018-03-21T01:18:27.153Z,0.23
2018-03-21T01:20:54.845Z,0.30
2018-03-21T01:23:22.522Z,0.33
2018-03-21T01:25:50.225Z,0.23
2018-03-21T01:28:17.875Z,0.31
2018-03-21T01:30:45.540Z,0.10
2018-03-21T01:33:13.227Z,0.28
2018-03-21T01:35:40.909Z,0.32
2018-03-21T01:38:08.596Z,0.28
2018-03-21T01:40:36.286Z,0.11
2018-03-21T01:43:03.991Z,0.33
2018-03-21T01:45:31.656Z,0.40
2018-03-21T01:47:59.327Z,0.19
2018-03-21T01:50:27.020Z,0.31
2018-03-21T01:53:06.363Z,0.28
2018-03-21T01:55:34.063Z,0.19
2018-03-21T01:58:01.732Z,0.19
2018-03-21T02:00:29.430Z,0.24
2018-03-21T02:02:57.097Z,0.25
2018-03-21T02:05:24.756Z,0.16
2018-03-21T02:07:52.435Z,0.22
2018-03-21T02:10:20.091Z,0.32
2018-03-21T02:12:47.887Z,0.30
2018-03-21T02:15:15.545Z,0.33
2018-03-21T02:17:43.353Z,0.30
2018-03-21T02:20:11.008Z,0.42
2018-03-21T02:22:38.675Z,0.19
2018-03-21T02:25:06.406Z,0.14
2018-03-21T02:27:34.059Z,0.13
2018-03-21T02:30:01.753Z,-0.01
2018-03-21T02:32:29.418Z,0.00
2018-03-21T02:34:57.257Z,-0.32
2018-03-21T02:37:24.924Z,-0.14
2018-03-21T02:39:52.605Z,-0.24
2018-03-21T02:42:20.301Z,-0.18
2018-03-21T02:44:47.963Z,-0.25
2018-03-21T02:47:15.660Z,-0.18
2018-03-21T02:49:43.326Z,-0.24
2018-03-21T02:52:11.040Z,-0.25
2018-03-21T02:54:38.714Z,-0.24
2018-03-21T02:57:07.283Z,-0.23
2018-03-21T02:59:34.977Z,-0.23
2018-03-21T03:02:02.700Z,-0.12
2018-03-21T03:04:30.383Z,-0.13
2018-03-21T03:06:58.057Z,-0.15
2018-03-21T03:09:25.958Z,-0.47
2018-03-21T03:11:53.632Z,-0.24
2018-03-21T03:14:21.300Z,-0.33
2018-03-21T03:16:48.988Z,-0.24
2018-03-21T03:19:16.651Z,-0.34
2018-03-21T03:21:44.331Z,-0.40
2018-03-21T03:24:12.001Z,-0.38
2018-03-21T03:26:39.710Z,-0.51
2018-03-21T03:29:07.371Z,-0.40
2018-03-21T03:31:35.033Z,-0.36
2018-03-21T03:34:02.715Z,-0.45
2018-03-21T03:36:30.380Z,-0.39
2018-03-21T03:38:58.312Z,-0.41
2018-03-21T03:41:25.978Z,-0.37
2018-03-21T03:43:53.640Z,-0.28
2018-03-21T03:46:21.329Z,-0.21
2018-03-21T03:48:49.004Z,-0.37
2018-03-21T03:51:16.843Z,-0.50
2018-03-21T03:53:44.528Z,-0.36
2018-03-21T03:56:12.203Z,-0.25
2018-03-21T03:58:39.889Z,-0.44
2018-03-21T04:01:07.552Z,-0.31
2018-03-21T04:03:35.251Z,-0.36
2018-03-21T04:06:02.904Z,-0.36
2018-03-21T04:08:30.774Z,-0.54
2018-03-21T04:10:58.448Z,-0.36
2018-03-21T04:13:26.099Z,-0.37
2018-03-21T04:15:53.786Z,-0.61
2018-03-21T04:18:21.460Z,-0.51
2018-03-21T04:20:49.151Z,-0.40
2018-03-21T04:23:16.836Z,-0.46
2018-03-21T04:25:44.532Z,-0.49
2018-03-21T04:28:12.235Z,-0.45
2018-03-21T04:30:39.896Z,-0.35
2018-03-21T04:33:07.612Z,-0.33
2018-03-21T04:35:35.423Z,-0.19
2018-03-21T04:38:03.101Z,-0.13
2018-03-21T04:40:30.761Z,-0.13
2018-03-21T04:42:58.461Z,-0.23
2018-03-21T04:45:26.125Z,-0.16
2018-03-21T04:47:53.794Z,-0.15
2018-03-21T04:50:21.477Z,-0.29
2018-03-21T04:52:49.140Z,-0.26
2018-03-21T04:55:16.828Z,-0.17
2018-03-21T04:57:44.739Z,-0.31
2018-03-21T05:00:12.612Z,-0.43
2018-03-21T05:02:40.276Z,-0.37
2018-03-21T05:05:07.940Z,-0.50
2018-03-21T05:07:35.637Z,-0.66
2018-03-21T05:10:03.310Z,-0.44
2018-03-21T05:12:31.008Z,-0.57
2018-03-21T05:14:58.689Z,-0.65
2018-03-21T05:17:26.424Z,-0.70
2018-03-21T05:19:54.086Z,-0.88
2018-03-21T05:22:21.744Z,-0.86
2018-03-21T05:24:49.434Z,-1.10
2018-03-21T05:27:17.098Z,-0.95
2018-03-21T05:29:44.806Z,-0.95
2018-03-21T05:32:12.476Z,-0.75
2018-03-21T05:34:40.190Z,-0.66
2018-03-21T05:37:07.860Z,-0.55
2018-03-21T05:39:35.537Z,-0.73
2018-03-21T05:42:03.232Z,-0.67
2018-03-21T05:44:30.896Z,-0.60
2018-03-21T05:46:58.590Z,-0.76
2018-03-21T05:49:26.252Z,-0.75
2018-03-21T05:51:53.973Z,-0.71
2018-03-21T05:54:21.633Z,-0.77
2018-03-21T05:56:49.328Z,-0.56
2018-03-21T05:59:17.012Z,-0.51
2018-03-21T06:01:44.680Z,-0.56
2018-03-21T06:04:12.368Z,-0.65
2018-03-21T06:06:40.035Z,-0.91
2018-03-21T06:09:07.757Z,-0.79
2018-03-21T06:11:35.415Z,-0.64
2018-03-21T06:14:03.094Z,-0.87
2018-03-21T06:16:30.860Z,-0.91
2018-03-21T06:18:58.536Z,-0.84
2018-03-21T06:21:26.233Z,-0.67
2018-03-21T06:23:53.915Z,-0.66
2018-03-21T06:26:21.660Z,-0.64
2018-03-21T06:28:49.331Z,-0.55
2018-03-21T06:31:17.011Z,-0.54
2018-03-21T06:33:44.693Z,-0.77
2018-03-21T06:36:12.361Z,-0.78
2018-03-21T06:38:40.056Z,-0.63
2018-03-21T06:41:07.736Z,-0.73
2018-03-21T06:43:35.465Z,-0.54
2018-03-21T06:46:03.132Z,-0.46
2018-03-21T06:48:30.801Z,-0.28
2018-03-21T06:50:58.500Z,-0.30
2018-03-21T06:53:26.174Z,-0.34
2018-03-21T06:55:53.882Z,-0.50
2018-03-21T06:58:21.555Z,-0.19
2018-03-21T07:00:49.392Z,-0.25
2018-03-21T07:03:17.060Z,-0.35
2018-03-21T07:05:44.739Z,-0.16
2018-03-21T07:08:12.447Z,-0.15
2018-03-21T07:10:40.111Z,-0.04
2018-03-21T07:13:07.807Z,0.02
2018-03-21T07:15:47.143Z,0.17
2018-03-21T07:18:14.836Z,0.05
2018-03-21T07:20:42.491Z,0.22
2018-03-21T07:23:10.484Z,0.12
2018-03-21T07:25:38.132Z,0.26
2018-03-21T07:28:05.822Z,0.27
2018-03-21T07:30:33.509Z,0.40
2018-03-21T07:33:01.173Z,0.41
2018-03-21T07:35:28.873Z,0.21
2018-03-21T07:37:56.545Z,0.38
2018-03-21T07:40:24.247Z,0.81
2018-03-21T07:42:51.949Z,0.87
2018-03-21T07:45:19.642Z,0.89
2018-03-21T07:47:47.320Z,0.92
2018-03-21T07:50:15.027Z,0.96
2018-03-21T07:52:42.692Z,0.79
2018-03-21T07:55:10.357Z,0.74
2018-03-21T07:57:38.036Z,0.83
2018-03-21T08:00:05.781Z,0.95
2018-03-21T08:02:33.659Z,0.93
2018-03-21T08:05:01.321Z,1.24
2018-03-21T08:07:28.988Z,1.39
2018-03-21T08:09:56.680Z,1.28
2018-03-21T08:12:24.340Z,1.42
2018-03-21T08:14:52.265Z,1.24
2018-03-21T08:17:19.926Z,1.42
2018-03-21T08:19:47.588Z,1.29
2018-03-21T08:22:15.267Z,1.37
2018-03-21T08:24:42.932Z,1.16
2018-03-21T08:27:10.623Z,1.34
2018-03-21T08:29:38.277Z,1.39
2018-03-21T08:32:06.014Z,1.64
2018-03-21T08:34:33.668Z,1.87
2018-03-21T08:37:01.346Z,1.78
2018-03-21T08:39:29.023Z,1.93
2018-03-21T08:41:56.689Z,1.74
2018-03-21T08:44:24.391Z,2.16
2018-03-21T08:46:52.124Z,1.90
2018-03-21T08:49:19.940Z,1.86
2018-03-21T08:51:47.603Z,2.12
2018-03-21T08:54:15.255Z,1.86
2018-03-21T08:56:42.937Z,2.16
2018-03-21T08:59:10.603Z,2.19
2018-03-21T09:01:38.292Z,2.60
2018-03-21T09:04:05.947Z,3.02
2018-03-21T09:06:34.029Z,2.64
2018-03-21T09:09:01.960Z,2.52
2018-03-21T09:11:29.632Z,2.65
2018-03-21T09:13:57.348Z,2.85
2018-03-21T09:16:25.852Z,3.01
2018-03-21T09:18:53.542Z,3.25
2018-03-21T09:21:21.217Z,3.51
2018-03-21T09:23:49.276Z,3.33
2018-03-21T09:26:16.952Z,3.01
2018-03-21T09:28:44.629Z,3.44
2018-03-21T09:31:12.309Z,3.25
2018-03-21T09:33:39.980Z,3.72
2018-03-21T09:36:07.660Z,3.24
2018-03-21T09:38:35.321Z,3.23
2018-03-21T09:41:03.312Z,3.24
2018-03-21T09:43:30.968Z,3.40
2018-03-21T09:45:58.640Z,3.34
2018-03-21T09:48:26.359Z,3.58
2018-03-21T09:50:54.021Z,3.81
2018-03-21T09:53:21.756Z,3.44
2018-03-21T09:55:49.478Z,3.59
2018-03-21T09:58:17.364Z,3.57
2018-03-21T10:00:45.088Z,3.34
2018-03-21T10:03:12.723Z,3.45
2018-03-21T10:05:40.401Z,3.33
2018-03-21T10:08:08.066Z,3.61
2018-03-21T10:10:35.751Z,3.51
2018-03-21T10:13:03.662Z,3.58
2018-03-21T10:15:31.376Z,3.34
2018-03-21T10:17:59.048Z,3.30
2018-03-21T10:20:26.707Z,3.07
2018-03-21T10:22:54.402Z,3.32
2018-03-21T10:25:22.100Z,3.69
2018-03-21T10:27:49.781Z,3.93
2018-03-21T10:30:17.448Z,4.13
2018-03-21T10:32:45.131Z,4.15
2018-03-21T10:35:12.802Z,4.19
2018-03-21T10:37:40.742Z,4.50
2018-03-21T10:40:08.403Z,4.72
2018-03-21T10:42:36.084Z,4.76
2018-03-21T10:45:03.800Z,4.37
2018-03-21T10:47:31.471Z,4.55
2018-03-21T10:49:59.167Z,4.36
2018-03-21T10:52:38.776Z,3.82
2018-03-21T10:54:55.133Z,4.06
2018-03-21T10:57:22.797Z,4.18
2018-03-21T10:59:50.491Z,3.71
2018-03-21T11:02:18.177Z,3.92
2018-03-21T11:04:46.604Z,4.10
2018-03-21T11:07:14.295Z,3.83
2018-03-21T11:09:41.965Z,3.74
2018-03-21T11:12:09.678Z,3.57
2018-03-21T11:14:37.336Z,3.90
2018-03-21T11:17:05.413Z,3.98
2018-03-21T11:19:33.092Z,4.06
2018-03-21T11:22:00.778Z,4.06
2018-03-21T11:24:28.467Z,4.24
2018-03-21T11:26:56.135Z,4.39
2018-03-21T11:29:23.940Z,4.38
2018-03-21T11:31:51.603Z,4.62
2018-03-21T11:34:19.265Z,4.47
2018-03-21T11:36:46.959Z,4.93
2018-03-21T11:39:14.636Z,4.68
2018-03-21T11:41:42.324Z,5.07
2018-03-21T11:44:09.912Z,5.45
2018-03-21T11:46:37.777Z,5.84
2018-03-21T11:49:05.383Z,6.07
2018-03-21T11:51:33.051Z,6.36
2018-03-21T11:54:00.655Z,6.30
2018-03-21T11:56:28.299Z,5.97
2018-03-21T11:58:55.883Z,6.35
2018-03-21T12:01:23.472Z,6.45
2018-03-21T12:03:51.092Z,6.48
2018-03-21T12:06:18.693Z,6.66
2018-03-21T12:08:46.297Z,6.92
2018-03-21T12:11:13.996Z,7.13
2018-03-21T12:13:41.589Z,7.25
2018-03-21T12:16:10.952Z,6.89
2018-03-21T12:18:38.548Z,6.52
2018-03-21T12:21:06.185Z,7.10
2018-03-21T12:23:35.301Z,7.18
2018-03-21T12:26:03.563Z,6.83
2018-03-21T12:28:31.181Z,7.49
2018-03-21T12:30:58.787Z,7.10
2018-03-21T12:33:26.409Z,7.57
2018-03-21T12:35:54.016Z,7.75
2018-03-21T12:38:21.629Z,7.75
2018-03-21T12:40:49.209Z,8.29
2018-03-21T12:43:16.984Z,7.57
2018-03-21T12:45:44.565Z,8.53
2018-03-21T12:48:12.162Z,9.27
2018-03-21T12:50:39.773Z,9.12
2018-03-21T12:53:07.543Z,10.93
2018-03-21T12:55:35.231Z,12.16
2018-03-21T12:58:02.791Z,12.21
2018-03-21T13:00:30.833Z,12.95
2018-03-21T13:02:58.425Z,14.05
2018-03-21T13:05:26.021Z,12.66
2018-03-21T13:07:53.645Z,13.74
2018-03-21T13:10:21.239Z,12.67
2018-03-21T13:12:48.855Z,12.62
2018-03-21T13:15:16.446Z,13.10
2018-03-21T13:17:44.281Z,13.99
2018-03-21T13:20:11.869Z,14.86
2018-03-21T13:22:39.465Z,15.68
2018-03-21T13:25:07.080Z,16.35
2018-03-21T13:27:34.716Z,16.77
2018-03-21T13:30:02.335Z,16.14
2018-03-21T13:32:29.929Z,16.45
2018-03-21T13:34:57.839Z,17.65
2018-03-21T13:37:37.111Z,16.77
2018-03-21T13:40:05.651Z,16.67
2018-03-21T13:42:34.904Z,14.42
2018-03-21T13:45:02.504Z,15.36
2018-03-21T13:47:32.053Z,13.76
2018-03-21T13:49:59.634Z,13.52
2018-03-21T13:52:27.269Z,14.44
2018-03-21T13:54:54.860Z,13.34
2018-03-21T13:57:22.646Z,11.52
2018-03-21T13:59:50.232Z,11.30
2018-03-21T14:02:17.817Z,11.10
2018-03-21T14:04:45.427Z,11.64
2018-03-21T14:07:13.021Z,12.78
2018-03-21T14:09:40.629Z,12.45
2018-03-21T14:12:08.232Z,10.90
2018-03-21T14:14:35.864Z,9.94
2018-03-21T14:17:03.477Z,8.90
2018-03-21T14:19:31.071Z,9.31
2018-03-21T14:22:01.000Z,8.71
2018-03-21T14:24:28.597Z,8.45
2018-03-21T14:26:56.202Z,7.80
2018-03-21T14:29:23.892Z,7.78
2018-03-21T14:31:51.755Z,7.51
2018-03-21T14:34:19.347Z,7.06
2018-03-21T14:36:46.980Z,6.78
2018-03-21T14:39:14.600Z,6.91
2018-03-21T14:41:42.191Z,6.81
2018-03-21T14:44:09.811Z,6.52
2018-03-21T14:46:37.399Z,6.45
2018-03-21T14:49:05.175Z,6.21
2018-03-21T14:51:32.755Z,6.28
2018-03-21T14:54:00.339Z,5.92
2018-03-21T14:56:27.953Z,6.07
2018-03-21T14:58:55.551Z,6.10
2018-03-21T15:01:23.161Z,6.21
2018-03-21T15:03:50.966Z,6.03
2018-03-21T15:06:19.060Z,6.21
2018-03-21T15:08:46.653Z,6.10
2018-03-21T15:11:14.237Z,6.03
2018-03-21T15:13:41.855Z,5.80
2018-03-21T15:16:09.520Z,5.95
2018-03-21T15:18:37.724Z,5.92
2018-03-21T15:21:05.629Z,6.34
2018-03-21T15:23:33.393Z,6.18
2018-03-21T15:26:00.979Z,6.11
2018-03-21T15:28:28.613Z,6.03
2018-03-21T15:30:56.269Z,6.09
2018-03-21T15:33:23.864Z,6.21
2018-03-21T15:35:51.821Z,5.88
2018-03-21T15:38:19.432Z,5.72
2018-03-21T15:40:47.328Z,5.77
2018-03-21T15:43:14.991Z,5.72
2018-03-21T15:45:42.658Z,5.63
2018-03-21T15:48:10.279Z,5.80
2018-03-21T15:50:37.969Z,5.75
2018-03-21T15:53:05.591Z,5.52
2018-03-21T15:55:34.447Z,5.60
2018-03-21T15:58:02.348Z,5.54
2018-03-21T16:00:30.018Z,5.49
2018-03-21T16:02:57.696Z,5.42
2018-03-21T16:05:25.385Z,5.37
2018-03-21T16:07:53.053Z,5.27
2018-03-21T16:10:20.753Z,5.39
2018-03-21T16:12:48.432Z,5.83
2018-03-21T16:15:16.118Z,5.75
2018-03-21T16:17:43.810Z,5.50
2018-03-21T16:20:11.536Z,5.44
2018-03-21T16:22:39.208Z,5.49
2018-03-21T16:25:07.236Z,5.45
2018-03-21T16:27:35.066Z,5.42
2018-03-21T16:30:04.475Z,5.33
2018-03-21T16:32:32.640Z,5.50
2018-03-21T16:35:00.317Z,5.41
2018-03-21T16:37:27.984Z,5.44
2018-03-21T16:39:56.237Z,5.49
2018-03-21T16:42:23.907Z,5.79
2018-03-21T16:44:51.613Z,5.22
2018-03-21T16:47:19.334Z,5.28
2018-03-21T16:49:47.225Z,5.22
2018-03-21T16:52:14.902Z,5.23
2018-03-21T16:54:42.743Z,5.25
2018-03-21T16:57:10.412Z,5.11
2018-03-21T16:59:38.565Z,5.13
2018-03-21T17:02:06.232Z,5.14
2018-03-21T17:04:33.896Z,5.06
2018-03-21T17:07:01.597Z,5.14
2018-03-21T17:09:29.719Z,5.20
2018-03-21T17:11:57.410Z,5.06
2018-03-21T17:14:25.088Z,4.95
2018-03-21T17:16:52.869Z,4.93
2018-03-21T17:19:20.536Z,4.82
2018-03-21T17:21:48.257Z,4.79
2018-03-21T17:24:15.964Z,4.69
2018-03-21T17:26:45.490Z,4.65
2018-03-21T17:29:16.142Z,4.57
2018-03-21T17:31:45.380Z,4.56
2018-03-21T17:34:15.428Z,4.66
2018-03-21T17:36:43.477Z,4.53
2018-03-21T17:39:11.404Z,4.65
2018-03-21T17:41:39.070Z,4.72
2018-03-21T17:44:06.757Z,4.82
2018-03-21T17:46:34.465Z,4.63
2018-03-21T17:49:02.132Z,4.66
2018-03-21T17:51:29.817Z,4.60
2018-03-21T17:53:57.488Z,4.64
2018-03-21T17:56:25.173Z,4.42
2018-03-21T17:58:52.842Z,4.64
2018-03-21T18:01:20.870Z,4.51
2018-03-21T18:03:48.534Z,4.49
2018-03-21T18:06:16.227Z,4.45
2018-03-21T18:08:43.920Z,4.41
2018-03-21T18:11:11.591Z,4.25
2018-03-21T18:13:39.283Z,4.40
2018-03-21T18:16:06.883Z,4.44
2018-03-21T18:18:34.962Z,4.13
2018-03-21T18:21:02.637Z,4.30
2018-03-21T18:23:30.340Z,4.25
2018-03-21T18:25:58.044Z,4.19
2018-03-21T18:28:25.711Z,4.14
2018-03-21T18:30:53.412Z,4.07
2018-03-21T18:33:21.071Z,4.12
2018-03-21T18:35:48.986Z,4.27
2018-03-21T18:38:16.657Z,4.17
2018-03-21T18:40:44.315Z,4.04
2018-03-21T18:43:11.997Z,4.07
2018-03-21T18:45:39.664Z,4.16
2018-03-21T18:48:08.133Z,4.16
2018-03-21T18:50:35.810Z,4.09
2018-03-21T18:53:03.505Z,4.23
2018-03-21T18:55:31.936Z,4.15
2018-03-21T18:57:59.604Z,4.13
2018-03-21T19:00:27.294Z,4.04
2018-03-21T19:02:54.960Z,4.08
2018-03-21T19:05:22.652Z,3.94
2018-03-21T19:07:50.330Z,3.70
2018-03-21T19:10:18.006Z,3.78
2018-03-21T19:12:45.762Z,3.69
2018-03-21T19:15:13.396Z,3.60
2018-03-21T19:17:41.179Z,3.65
2018-03-21T19:20:08.835Z,3.68
2018-03-21T19:22:36.516Z,3.72
2018-03-21T19:25:04.186Z,3.44
2018-03-21T19:27:31.876Z,3.54
2018-03-21T19:29:59.545Z,3.40
2018-03-21T19:32:27.232Z,3.38
2018-03-21T19:34:54.908Z,3.23
2018-03-21T19:37:22.622Z,3.10
2018-03-21T19:39:50.306Z,3.19
2018-03-21T19:42:18.000Z,3.14
2018-03-21T19:44:45.664Z,3.18
2018-03-21T19:47:13.347Z,3.19
2018-03-21T19:49:41.020Z,3.12
2018-03-21T19:52:08.713Z,3.15
2018-03-21T19:54:36.376Z,2.94
2018-03-21T19:57:04.358Z,2.83
2018-03-21T19:59:32.025Z,2.92
2018-03-21T20:01:59.703Z,3.00
2018-03-21T20:04:27.391Z,3.05
2018-03-21T20:06:55.061Z,3.10
2018-03-21T20:09:22.752Z,3.13
2018-03-21T20:11:50.422Z,3.10
2018-03-21T20:14:18.416Z,3.12
2018-03-21T20:16:46.156Z,2.96
2018-03-21T20:19:13.824Z,2.86
2018-03-21T20:21:41.522Z,2.84
2018-03-21T20:24:09.191Z,2.94
2018-03-21T20:26:36.885Z,2.81
2018-03-21T20:29:04.550Z,3.02
2018-03-21T20:31:32.253Z,2.90
2018-03-21T20:33:59.931Z,2.91
2018-03-21T20:36:27.667Z,2.90
2018-03-21T20:38:55.346Z,2.98
2018-03-21T20:41:23.021Z,2.93
2018-03-21T20:43:50.707Z,2.95
2018-03-21T20:46:18.374Z,2.91
2018-03-21T20:48:46.078Z,2.86
2018-03-21T20:51:13.737Z,2.70
2018-03-21T20:53:41.762Z,2.77
2018-03-21T20:56:09.441Z,2.81
2018-03-21T20:58:37.128Z,2.81
2018-03-21T21:01:04.816Z,2.65
2018-03-21T21:03:32.488Z,2.66
2018-03-21T21:06:00.190Z,2.58
2018-03-21T21:08:27.862Z,2.56
2018-03-21T21:10:55.899Z,2.54
2018-03-21T21:13:23.575Z,2.48
2018-03-21T21:15:51.249Z,2.41
2018-03-21T21:18:18.950Z,2.50
2018-03-21T21:20:46.620Z,2.47
2018-03-21T21:23:14.315Z,2.33
2018-03-21T21:25:41.975Z,2.34
2018-03-21T21:28:09.685Z,2.38
2018-03-21T21:30:37.352Z,2.30
2018-03-21T21:33:05.019Z,2.31
2018-03-21T21:35:32.705Z,2.30
2018-03-21T21:38:00.371Z,2.29
2018-03-21T21:40:28.247Z,2.17
2018-03-21T21:42:55.921Z,2.17
2018-03-21T21:45:23.588Z,2.17
2018-03-21T21:47:51.399Z,2.13
2018-03-21T21:50:19.068Z,2.05
2018-03-21T21:52:46.760Z,2.08
2018-03-21T21:55:14.418Z,2.13
2018-03-21T21:57:42.134Z,2.08
2018-03-21T22:00:09.806Z,2.09
2018-03-21T22:02:37.470Z,2.09
2018-03-21T22:05:05.160Z,2.10
2018-03-21T22:07:32.832Z,2.02
2018-03-21T22:10:00.520Z,1.98
2018-03-21T22:12:28.188Z,1.94
2018-03-21T22:14:56.129Z,1.90
2018-03-21T22:17:23.797Z,1.89
2018-03-21T22:19:51.462Z,1.95
2018-03-21T22:22:19.144Z,1.99
2018-03-21T22:24:46.815Z,1.79
2018-03-21T22:27:14.492Z,1.81
2018-03-21T22:29:42.148Z,1.71
2018-03-21T22:32:10.080Z,1.59
2018-03-21T22:34:37.745Z,1.08
2018-03-21T22:37:05.406Z,1.18
2018-03-21T22:39:33.100Z,1.13
2018-03-21T22:42:00.764Z,0.94
2018-03-21T22:44:28.658Z,0.98
2018-03-21T22:46:56.326Z,1.13
2018-03-21T22:49:24.024Z,1.15
2018-03-21T22:51:51.701Z,1.30
2018-03-21T22:54:19.416Z,1.30
2018-03-21T22:56:47.081Z,1.34
2018-03-21T22:59:14.750Z,1.49
2018-03-21T23:01:42.447Z,1.53
2018-03-21T23:04:10.112Z,1.48
2018-03-21T23:06:37.814Z,1.47
2018-03-21T23:09:05.533Z,1.47
2018-03-21T23:11:33.194Z,1.41
2018-03-21T23:14:00.888Z,1.51
2018-03-21T23:16:28.560Z,1.48
2018-03-21T23:18:56.484Z,1.47
2018-03-21T23:21:24.140Z,1.32
2018-03-21T23:23:51.810Z,1.33
2018-03-21T23:26:19.495Z,1.15
2018-03-21T23:28:47.159Z,1.26
2018-03-21T23:31:14.841Z,1.23
2018-03-21T23:33:42.521Z,1.25
2018-03-21T23:36:10.525Z,1.27
2018-03-21T23:38:38.209Z,1.26
2018-03-21T23:41:05.873Z,1.28
2018-03-21T23:43:33.569Z,1.13
2018-03-21T23:46:01.250Z,1.19
2018-03-21T23:48:28.948Z,1.14
2018-03-21T23:50:56.626Z,1.26
2018-03-21T23:53:24.480Z,1.19
2018-03-21T23:55:52.148Z,1.19
2018-03-21T23:58:19.820Z,1.22
